createdAt,value
2023-03-17T00:02:43.192Z,8.90
2023-03-17T00:05:34.416Z,9.00
2023-03-17T00:08:29.670Z,9.10
2023-03-17T00:11:17.845Z,8.70
2023-03-17T00:14:04.798Z,8.50
2023-03-17T00:16:53.047Z,8.50
2023-03-17T00:19:39.993Z,8.50
2023-03-17T00:22:27.512Z,7.70
2023-03-17T00:25:29.063Z,7.50
2023-03-17T00:28:23.774Z,7.40
2023-03-17T00:31:24.680Z,6.60
2023-03-17T00:34:17.200Z,6.10
2023-03-17T00:37:04.280Z,6.20
2023-03-17T00:39:50.283Z,6.70
2023-03-17T00:42:37.145Z,6.80
2023-03-17T00:45:25.539Z,6.60
2023-03-17T00:48:21.670Z,6.80
2023-03-17T00:51:07.567Z,7.10
2023-03-17T00:53:53.648Z,7.10
2023-03-17T00:56:40.853Z,7.30
2023-03-17T00:59:38.135Z,7.30
2023-03-17T01:02:24.789Z,7.10
2023-03-17T01:05:10.978Z,7.50
2023-03-17T01:07:59.254Z,7.30
2023-03-17T01:10:45.449Z,7.10
2023-03-17T01:13:31.770Z,7.20
2023-03-17T01:16:19.152Z,7.10
2023-03-17T01:19:06.265Z,7.30
2023-03-17T01:21:52.359Z,7.30
2023-03-17T01:24:38.622Z,7.70
2023-03-17T01:27:25.752Z,7.80
2023-03-17T01:30:37.654Z,7.60
2023-03-17T01:33:23.603Z,7.50
2023-03-17T01:36:12.356Z,7.50
2023-03-17T01:38:58.801Z,7.50
2023-03-17T01:41:45.750Z,7.50
2023-03-17T01:44:32.041Z,7.50
2023-03-17T01:47:18.757Z,7.60
2023-03-17T01:50:10.392Z,7.70
2023-03-17T01:52:57.867Z,7.70
2023-03-17T01:55:45.971Z,7.80
2023-03-17T01:58:33.684Z,7.70
2023-03-17T02:01:25.407Z,7.40
2023-03-17T02:04:13.036Z,7.70
2023-03-17T02:06:59.550Z,7.80
2023-03-17T02:09:46.341Z,7.80
2023-03-17T02:12:34.849Z,7.90
2023-03-17T02:15:23.046Z,8.00
2023-03-17T02:18:13.923Z,8.00
2023-03-17T02:21:34.348Z,8.00
2023-03-17T02:24:26.501Z,7.90
2023-03-17T02:27:17.781Z,7.80
2023-03-17T02:30:08.943Z,7.80
2023-03-17T02:32:55.403Z,8.60
2023-03-17T02:35:42.469Z,7.70
2023-03-17T02:38:28.722Z,7.70
2023-03-17T02:41:14.734Z,7.70
2023-03-17T02:44:01.496Z,7.80
2023-03-17T02:46:47.255Z,7.70
2023-03-17T02:49:33.936Z,7.70
2023-03-17T02:52:20.195Z,7.70
2023-03-17T02:55:06.301Z,7.70
2023-03-17T02:57:52.382Z,7.60
2023-03-17T03:00:39.445Z,7.70
2023-03-17T03:03:25.980Z,7.60
2023-03-17T03:06:11.441Z,7.70
2023-03-17T03:08:57.553Z,7.70
2023-03-17T03:11:44.769Z,7.70
2023-03-17T03:14:32.625Z,7.80
2023-03-17T03:17:18.700Z,7.50
2023-03-17T03:20:05.937Z,7.70
2023-03-17T03:22:51.389Z,7.50
2023-03-17T03:25:38.066Z,7.30
2023-03-17T03:28:24.615Z,7.50
2023-03-17T03:31:10.397Z,7.70
2023-03-17T03:33:56.213Z,7.70
2023-03-17T03:36:41.615Z,7.70
2023-03-17T03:39:27.269Z,7.60
2023-03-17T03:42:13.115Z,7.90
2023-03-17T03:44:58.639Z,8.10
2023-03-17T03:47:44.745Z,8.10
2023-03-17T03:50:31.007Z,8.00
2023-03-17T03:53:17.210Z,8.00
2023-03-17T03:56:03.137Z,7.70
2023-03-17T03:58:48.634Z,7.10
2023-03-17T04:01:34.491Z,6.90
2023-03-17T04:04:20.717Z,7.20
2023-03-17T04:07:07.663Z,7.50
2023-03-17T04:09:53.328Z,7.20
2023-03-17T04:12:39.526Z,7.00
2023-03-17T04:15:25.536Z,6.60
2023-03-17T04:18:11.625Z,6.60
2023-03-17T04:20:57.882Z,6.30
2023-03-17T04:23:43.677Z,6.40
2023-03-17T04:26:29.342Z,6.60
2023-03-17T04:29:15.969Z,7.10
2023-03-17T04:32:02.400Z,7.30
2023-03-17T04:34:48.430Z,7.40
2023-03-17T04:37:34.732Z,7.50
2023-03-17T04:40:20.741Z,7.10
2023-03-17T04:43:07.657Z,7.00
2023-03-17T04:45:53.460Z,7.00
2023-03-17T04:48:39.102Z,7.00
2023-03-17T04:51:25.505Z,7.00
2023-03-17T04:54:11.282Z,7.00
2023-03-17T04:56:57.448Z,7.00
2023-03-17T04:59:43.348Z,7.10
2023-03-17T05:02:29.095Z,7.10
2023-03-17T05:05:14.915Z,7.00
2023-03-17T05:08:01.012Z,6.70
2023-03-17T05:10:46.678Z,6.10
2023-03-17T05:13:32.818Z,5.30
2023-03-17T05:16:18.439Z,5.30
2023-03-17T05:19:04.260Z,5.40
2023-03-17T05:21:50.126Z,5.90
2023-03-17T05:24:35.953Z,6.20
2023-03-17T05:27:22.730Z,6.30
2023-03-17T05:30:10.104Z,6.30
2023-03-17T05:32:56.118Z,5.60
2023-03-17T05:35:43.872Z,5.60
2023-03-17T05:38:30.162Z,5.70
2023-03-17T05:41:16.080Z,5.90
2023-03-17T05:44:02.296Z,5.60
2023-03-17T05:46:48.524Z,5.30
2023-03-17T05:49:34.708Z,5.40
2023-03-17T05:52:20.738Z,5.60
2023-03-17T05:55:08.084Z,5.70
2023-03-17T05:57:53.985Z,5.30
2023-03-17T06:00:39.967Z,5.30
2023-03-17T06:03:26.729Z,5.10
2023-03-17T06:06:12.500Z,4.90
2023-03-17T06:08:59.083Z,5.50
2023-03-17T06:11:44.743Z,5.80
2023-03-17T06:14:30.929Z,6.30
2023-03-17T06:17:17.292Z,6.60
2023-03-17T06:20:04.962Z,6.70
2023-03-17T06:23:03.498Z,6.40
2023-03-17T06:25:51.542Z,5.70
2023-03-17T06:28:37.496Z,5.40
2023-03-17T06:31:24.025Z,5.70
2023-03-17T06:34:09.794Z,6.30
2023-03-17T06:36:56.066Z,6.60
2023-03-17T06:39:43.048Z,6.80
2023-03-17T06:42:28.660Z,6.90
2023-03-17T06:45:14.670Z,7.00
2023-03-17T06:48:02.034Z,7.00
2023-03-17T06:50:50.390Z,7.00
2023-03-17T06:53:36.371Z,7.00
2023-03-17T06:56:29.866Z,7.10
2023-03-17T06:59:16.878Z,7.30
2023-03-17T07:02:03.915Z,7.40
2023-03-17T07:04:49.548Z,7.50
2023-03-17T07:07:38.997Z,7.40
2023-03-17T07:10:25.800Z,7.60
2023-03-17T07:13:12.206Z,7.80
2023-03-17T07:16:00.435Z,8.00
2023-03-17T07:18:47.529Z,8.10
2023-03-17T07:21:34.292Z,8.10
2023-03-17T07:24:20.212Z,8.00
2023-03-17T07:27:06.545Z,8.30
2023-03-17T07:29:53.357Z,8.50
2023-03-17T07:32:40.482Z,8.50
2023-03-17T07:35:28.018Z,8.70
2023-03-17T07:38:13.526Z,8.40
2023-03-17T07:40:59.986Z,7.90
2023-03-17T07:43:46.460Z,8.40
2023-03-17T07:46:32.917Z,8.80
2023-03-17T07:49:34.063Z,8.90
2023-03-17T07:52:26.413Z,9.20
2023-03-17T07:55:12.800Z,10.40
2023-03-17T07:57:59.622Z,11.30
2023-03-17T08:00:47.443Z,11.50
2023-03-17T08:03:34.602Z,10.10
2023-03-17T08:06:21.751Z,9.80
2023-03-17T08:09:07.956Z,10.20
2023-03-17T08:11:53.829Z,11.60
2023-03-17T08:14:39.555Z,13.00
2023-03-17T08:17:28.356Z,13.80
2023-03-17T08:20:14.397Z,12.70
2023-03-17T08:23:00.870Z,12.20
2023-03-17T08:25:47.640Z,10.70
2023-03-17T08:28:33.735Z,10.50
2023-03-17T08:31:21.638Z,11.80
2023-03-17T08:34:08.618Z,12.70
2023-03-17T08:36:54.493Z,14.10
2023-03-17T08:39:41.111Z,14.80
2023-03-17T08:42:27.325Z,14.20
2023-03-17T08:45:14.637Z,14.50
2023-03-17T08:48:01.485Z,15.60
2023-03-17T08:50:47.278Z,13.50
2023-03-17T08:53:35.439Z,13.50
2023-03-17T08:56:23.297Z,14.60
2023-03-17T08:59:09.397Z,14.50
2023-03-17T09:01:56.266Z,16.50
2023-03-17T09:04:42.557Z,15.50
2023-03-17T09:07:29.163Z,14.10
2023-03-17T09:10:17.052Z,16.20
2023-03-17T09:13:04.378Z,16.90
2023-03-17T09:15:51.966Z,15.90
2023-03-17T09:18:37.799Z,14.50
2023-03-17T09:21:23.750Z,14.40
2023-03-17T09:24:10.206Z,15.90
2023-03-17T09:26:59.818Z,15.60
2023-03-17T09:29:45.904Z,17.50
2023-03-17T09:32:32.347Z,18.30
2023-03-17T09:35:18.404Z,17.30
2023-03-17T09:38:04.508Z,16.10
2023-03-17T09:41:18.495Z,17.00
2023-03-17T09:44:38.738Z,18.80
2023-03-17T09:47:53.841Z,20.00
2023-03-17T09:50:46.951Z,15.40
2023-03-17T09:53:44.270Z,19.10
2023-03-17T09:56:33.454Z,20.40
2023-03-17T09:59:34.995Z,18.80
2023-03-17T10:02:32.908Z,17.70
2023-03-17T10:05:37.495Z,16.20
2023-03-17T10:08:35.452Z,18.90
2023-03-17T10:12:02.678Z,20.10
2023-03-17T10:14:59.707Z,17.30
2023-03-17T10:17:47.275Z,18.90
2023-03-17T10:20:36.637Z,20.60
2023-03-17T10:23:27.700Z,18.20
2023-03-17T10:26:29.949Z,20.00
2023-03-17T10:29:21.413Z,18.50
2023-03-17T10:32:12.659Z,17.70
2023-03-17T10:34:58.881Z,19.60
2023-03-17T10:37:47.528Z,20.40
2023-03-17T10:40:36.192Z,20.50
2023-03-17T10:43:22.856Z,18.60
2023-03-17T10:46:19.652Z,17.30
2023-03-17T10:49:16.845Z,17.70
2023-03-17T10:52:07.779Z,16.50
2023-03-17T10:54:54.510Z,18.60
2023-03-17T10:57:48.268Z,18.80
2023-03-17T11:00:37.503Z,18.30
2023-03-17T11:03:30.027Z,19.50
2023-03-17T11:06:19.254Z,19.70
2023-03-17T11:09:17.048Z,17.70
2023-03-17T11:12:26.516Z,16.40
2023-03-17T11:15:20.357Z,15.70
2023-03-17T11:18:33.283Z,16.50
2023-03-17T11:21:27.842Z,16.20
2023-03-17T11:24:27.183Z,16.60
2023-03-17T11:27:49.503Z,15.60
2023-03-17T11:30:43.961Z,15.90
2023-03-17T11:33:55.207Z,14.90
2023-03-17T11:36:56.438Z,14.50
2023-03-17T11:40:22.215Z,14.40
2023-03-17T11:43:45.561Z,15.00
2023-03-17T11:46:31.639Z,13.20
2023-03-17T11:49:35.986Z,14.50
2023-03-17T11:52:32.767Z,14.00
2023-03-17T11:55:36.371Z,14.30
2023-03-17T11:58:42.570Z,14.80
2023-03-17T12:01:49.465Z,14.20
2023-03-17T12:04:50.877Z,14.40
2023-03-17T12:07:44.575Z,14.50
2023-03-17T12:10:40.750Z,14.60
2023-03-17T12:13:43.170Z,14.70
2023-03-17T12:16:38.302Z,14.40
2023-03-17T12:19:45.729Z,14.70
2023-03-17T12:22:47.222Z,14.60
2023-03-17T12:26:33.498Z,14.60
2023-03-17T12:29:43.517Z,14.40
2023-03-17T12:32:42.277Z,14.50
2023-03-17T12:35:34.227Z,14.70
2023-03-17T12:38:41.416Z,14.80
2023-03-17T12:41:57.760Z,14.90
2023-03-17T12:45:11.196Z,14.70
2023-03-17T12:48:06.026Z,14.50
2023-03-17T12:51:07.063Z,14.90
2023-03-17T12:53:53.555Z,14.80
2023-03-17T12:56:46.137Z,14.60
2023-03-17T12:59:34.069Z,14.80
2023-03-17T13:02:29.648Z,15.60
2023-03-17T13:05:19.820Z,15.10
2023-03-17T13:08:11.083Z,14.80
2023-03-17T13:11:28.116Z,14.70
2023-03-17T13:14:47.706Z,14.80
2023-03-17T13:17:34.960Z,14.80
2023-03-17T13:20:28.707Z,14.90
2023-03-17T13:23:17.359Z,15.10
2023-03-17T13:26:04.379Z,15.10
2023-03-17T13:28:51.812Z,14.70
2023-03-17T13:31:39.316Z,14.90
2023-03-17T13:34:29.013Z,15.00
2023-03-17T13:37:51.063Z,14.90
2023-03-17T13:41:09.992Z,14.70
2023-03-17T13:44:01.324Z,14.60
2023-03-17T13:46:48.320Z,14.90
2023-03-17T13:49:36.914Z,15.00
2023-03-17T13:52:33.485Z,14.80
2023-03-17T13:55:20.544Z,14.50
2023-03-17T13:58:11.382Z,14.60
2023-03-17T14:01:02.661Z,15.00
2023-03-17T14:04:11.052Z,15.30
2023-03-17T14:07:14.960Z,14.70
2023-03-17T14:10:09.634Z,15.30
2023-03-17T14:13:36.133Z,14.90
2023-03-17T14:16:37.414Z,13.60
2023-03-17T14:19:31.806Z,14.60
2023-03-17T14:25:37.758Z,14.10
2023-03-17T14:28:33.082Z,15.40
2023-03-17T14:31:25.130Z,15.50
2023-03-17T14:34:16.236Z,15.30
2023-03-17T14:37:04.389Z,14.90
2023-03-17T14:39:56.378Z,14.80
2023-03-17T14:42:42.088Z,14.90
2023-03-17T14:45:49.610Z,14.90
2023-03-17T14:48:37.868Z,15.00
2023-03-17T14:51:38.115Z,15.20
2023-03-17T14:54:42.082Z,16.30
2023-03-17T14:57:44.416Z,15.20
2023-03-17T15:00:53.278Z,14.80
2023-03-17T15:08:48.333Z,14.90
2023-03-17T15:11:41.665Z,14.60
2023-03-17T15:14:40.280Z,14.60
2023-03-17T15:17:33.923Z,14.80
2023-03-17T15:20:20.543Z,14.70
2023-03-17T15:23:20.049Z,14.80
2023-03-17T15:26:10.251Z,14.80
2023-03-17T15:28:58.962Z,14.70
2023-03-17T15:31:45.916Z,14.60
2023-03-17T15:34:32.405Z,14.60
2023-03-17T15:37:22.823Z,14.70
2023-03-17T15:40:10.465Z,14.40
2023-03-17T15:42:57.415Z,14.80
2023-03-17T15:45:45.397Z,14.60
2023-03-17T15:48:36.428Z,14.70
2023-03-17T15:51:23.772Z,14.50
2023-03-17T15:54:15.837Z,14.70
2023-03-17T15:57:01.718Z,14.50
2023-03-17T15:59:47.691Z,14.50
2023-03-17T16:02:37.357Z,14.60
2023-03-17T16:05:26.674Z,14.70
2023-03-17T16:08:18.087Z,15.80
2023-03-17T16:11:04.466Z,14.70
2023-03-17T16:13:50.394Z,14.70
2023-03-17T16:16:39.507Z,14.70
2023-03-17T16:19:25.807Z,14.90
2023-03-17T16:22:37.621Z,14.60
2023-03-17T16:25:32.877Z,14.40
2023-03-17T16:28:25.078Z,14.50
2023-03-17T16:31:25.443Z,14.70
2023-03-17T16:34:17.065Z,14.80
2023-03-17T16:37:03.666Z,14.50
2023-03-17T16:39:52.340Z,14.40
2023-03-17T16:42:41.616Z,14.30
2023-03-17T16:45:33.264Z,14.40
2023-03-17T16:48:19.164Z,14.50
2023-03-17T16:51:06.136Z,14.30
2023-03-17T16:53:53.009Z,14.20
2023-03-17T16:56:41.283Z,14.20
2023-03-17T16:59:31.619Z,14.10
2023-03-17T17:02:18.160Z,14.00
2023-03-17T17:05:13.423Z,14.00
2023-03-17T17:07:59.543Z,14.00
2023-03-17T17:10:45.702Z,13.90
2023-03-17T17:13:31.868Z,13.80
2023-03-17T17:16:30.887Z,13.80
2023-03-17T17:19:17.674Z,13.70
2023-03-17T17:22:03.538Z,13.70
2023-03-17T17:24:49.801Z,13.60
2023-03-17T17:27:37.306Z,13.50
2023-03-17T17:30:25.990Z,13.60
2023-03-17T17:33:13.010Z,13.50
2023-03-17T17:35:59.469Z,13.50
2023-03-17T17:38:46.378Z,13.40
2023-03-17T17:41:34.233Z,13.40
2023-03-17T17:44:21.745Z,13.40
2023-03-17T17:47:08.643Z,13.40
2023-03-17T17:49:54.617Z,13.40
2023-03-17T17:52:40.741Z,13.60
2023-03-17T17:55:26.590Z,13.40
2023-03-17T17:58:19.353Z,13.40
2023-03-17T18:01:05.645Z,13.50
2023-03-17T18:03:51.704Z,13.70
2023-03-17T18:06:37.860Z,13.70
2023-03-17T18:09:24.332Z,13.70
2023-03-17T18:12:10.783Z,13.80
2023-03-17T18:14:56.879Z,14.00
2023-03-17T18:17:43.338Z,13.90
2023-03-17T18:20:30.356Z,13.90
2023-03-17T18:23:16.904Z,13.80
2023-03-17T18:26:04.330Z,13.90
2023-03-17T18:28:50.963Z,14.00
2023-03-17T18:31:53.934Z,14.30
2023-03-17T18:34:45.567Z,14.30
2023-03-17T18:37:32.625Z,14.40
2023-03-17T18:40:19.872Z,14.40
2023-03-17T18:43:06.221Z,13.70
2023-03-17T18:45:52.025Z,13.20
2023-03-17T18:48:37.802Z,13.40
2023-03-17T18:51:24.602Z,13.60
2023-03-17T18:54:12.171Z,13.90
2023-03-17T18:56:58.288Z,13.80
2023-03-17T18:59:44.524Z,13.40
2023-03-17T19:02:30.402Z,13.70
2023-03-17T19:05:17.418Z,13.80
2023-03-17T19:08:03.529Z,13.70
2023-03-17T19:10:49.860Z,13.60
2023-03-17T19:13:36.942Z,13.50
2023-03-17T19:16:29.217Z,13.40
2023-03-17T19:19:15.418Z,13.30
2023-03-17T19:22:03.939Z,13.20
2023-03-17T19:24:50.801Z,13.10
2023-03-17T19:27:36.899Z,13.00
2023-03-17T19:30:22.816Z,13.00
2023-03-17T19:33:09.040Z,12.70
2023-03-17T19:35:57.359Z,12.40
2023-03-17T19:38:44.272Z,12.40
2023-03-17T19:41:32.989Z,12.40
2023-03-17T19:44:19.540Z,12.40
2023-03-17T19:47:08.189Z,12.40
2023-03-17T19:49:54.570Z,13.10
2023-03-17T19:52:40.660Z,12.20
2023-03-17T19:55:29.693Z,12.30
2023-03-17T19:58:16.527Z,12.10
2023-03-17T20:01:04.109Z,10.00
2023-03-17T20:03:50.425Z,12.00
2023-03-17T20:06:36.492Z,11.90
2023-03-17T20:09:24.962Z,12.00
2023-03-17T20:12:11.287Z,11.90
2023-03-17T20:14:57.493Z,11.70
2023-03-17T20:17:43.570Z,11.60
2023-03-17T20:20:29.916Z,11.50
2023-03-17T20:23:17.060Z,11.50
2023-03-17T20:26:03.865Z,11.30
2023-03-17T20:28:50.017Z,11.40
2023-03-17T20:31:37.561Z,11.50
2023-03-17T20:34:23.518Z,11.50
2023-03-17T20:37:10.941Z,11.30
2023-03-17T20:39:57.464Z,11.10
2023-03-17T20:42:43.051Z,11.00
2023-03-17T20:45:29.690Z,11.00
2023-03-17T20:48:15.796Z,10.90
2023-03-17T20:51:05.584Z,11.00
2023-03-17T20:53:53.826Z,10.80
2023-03-17T20:56:40.034Z,10.80
2023-03-17T20:59:26.329Z,10.60
2023-03-17T21:02:17.499Z,10.80
2023-03-17T21:05:03.553Z,10.40
2023-03-17T21:07:49.834Z,10.40
2023-03-17T21:10:35.995Z,10.30
2023-03-17T21:13:22.003Z,10.30
2023-03-17T21:16:08.606Z,10.30
2023-03-17T21:18:55.045Z,10.30
2023-03-17T21:21:42.158Z,10.20
2023-03-17T21:24:32.090Z,10.30
2023-03-17T21:27:18.370Z,10.30
2023-03-17T21:30:11.903Z,10.10
2023-03-17T21:33:00.532Z,10.10
2023-03-17T21:35:47.546Z,10.10
2023-03-17T21:38:33.505Z,9.90
2023-03-17T21:41:39.716Z,9.80
2023-03-17T21:44:26.545Z,9.80
2023-03-17T21:47:12.547Z,9.80
2023-03-17T21:49:58.569Z,9.80
2023-03-17T21:52:44.885Z,9.70
2023-03-17T21:55:31.195Z,9.70
2023-03-17T21:58:17.096Z,9.70
2023-03-17T22:01:03.088Z,9.80
2023-03-17T22:03:50.453Z,9.80
2023-03-17T22:06:36.252Z,9.80
2023-03-17T22:09:22.633Z,9.70
2023-03-17T22:12:09.394Z,9.70
2023-03-17T22:14:58.588Z,9.80
2023-03-17T22:17:44.177Z,9.70
2023-03-17T22:20:30.396Z,9.60
2023-03-17T22:23:16.015Z,9.50
2023-03-17T22:26:02.068Z,9.40
2023-03-17T22:28:49.721Z,9.30
2023-03-17T22:31:35.646Z,9.20
2023-03-17T22:34:21.989Z,9.20
2023-03-17T22:37:08.140Z,9.10
2023-03-17T22:39:53.987Z,9.00
2023-03-17T22:42:39.971Z,9.00
2023-03-17T22:45:26.701Z,9.00
2023-03-17T22:48:12.528Z,9.10
2023-03-17T22:51:02.245Z,9.00
2023-03-17T22:53:48.732Z,8.80
2023-03-17T22:56:34.725Z,8.70
2023-03-17T22:59:20.701Z,8.60
2023-03-17T23:02:08.682Z,8.60
2023-03-17T23:04:54.317Z,8.70
2023-03-17T23:07:50.315Z,8.70
2023-03-17T23:10:39.508Z,8.70
2023-03-17T23:13:25.676Z,8.50
2023-03-17T23:16:12.639Z,8.50
2023-03-17T23:18:59.080Z,8.60
2023-03-17T23:21:44.850Z,8.60
2023-03-17T23:24:31.072Z,8.50
2023-03-17T23:27:17.207Z,8.40
2023-03-17T23:30:04.218Z,8.30
2023-03-17T23:32:49.743Z,8.30
2023-03-17T23:35:35.840Z,8.30
2023-03-17T23:38:22.068Z,8.40
2023-03-17T23:41:08.325Z,8.30
2023-03-17T23:43:54.253Z,8.20
2023-03-17T23:46:40.586Z,8.20
2023-03-17T23:49:27.502Z,8.20
2023-03-17T23:52:14.049Z,8.30
2023-03-17T23:55:01.082Z,8.30
2023-03-17T23:57:47.274Z,8.40
